Time;durP1;ratioP1;P1;durP2;ratioP2;P2;SDS_P1;SDS_P2;PMS_P1;PMS_P2;Temp;Humidity;BMP_temperature;BMP_pressure;BME280_temperature;BME280_humidity;BME280_pressure;Samples;Min_cycle;Max_cycle;Signal;HPM_P1;HPM_P2
2022/04/23 04:22:33;;;;;;;31.80;17.63;;;;;;;9.02;83.07;98846.53;5163074;27;20345;-76
2022/04/23 04:25:01;;;;;;;36.35;17.33;;;;;;;9.01;82.76;98833.47;5130421;27;20391;-76
2022/04/23 04:27:27;;;;;;;36.42;18.27;;;;;;;9.06;82.66;98842.47;5130131;27;20035;-76
2022/04/23 04:29:52;;;;;;;31.48;17.70;;;;;;;9.05;82.87;98842.66;5130116;27;20091;-75
2022/04/23 04:32:18;;;;;;;35.30;18.30;;;;;;;9.04;83.16;98835.72;5128885;27;20039;-74
2022/04/23 04:34:44;;;;;;;35.38;17.92;;;;;;;9.03;82.72;98834.91;5130014;27;20107;-75
2022/04/23 04:37:11;;;;;;;32.83;18.40;;;;;;;9.07;82.64;98845.97;5129845;27;20039;-75
2022/04/23 04:39:39;;;;;;;33.00;18.13;;;;;;;9.06;82.69;98839.81;5129822;27;20065;-76
2022/04/23 04:42:05;;;;;;;36.90;17.92;;;;;;;9.07;82.72;98846.78;5129547;27;20035;-76
2022/04/23 04:44:31;;;;;;;33.90;18.00;;;;;;;9.03;82.39;98852.69;5129733;27;20051;-77
2022/04/23 04:47:09;;;;;;;32.53;17.77;;;;;;;9.02;83.19;98846.53;5112897;28;20469;-76
2022/04/23 04:49:36;;;;;;;31.92;18.08;;;;;;;9.01;83.21;98850.22;5129813;27;20067;-75
2022/04/23 04:52:02;;;;;;;31.88;17.42;;;;;;;8.99;83.47;98852.22;5129260;27;20396;-76
2022/04/23 04:54:27;;;;;;;30.38;16.80;;;;;;;9.03;83.52;98856.16;5129548;28;20032;-75
2022/04/23 04:56:54;;;;;;;32.92;17.65;;;;;;;9.07;83.38;98860.06;5129406;27;20092;-76
2022/04/23 04:59:23;;;;;;;29.35;16.83;;;;;;;9.08;83.25;98856.38;5129779;27;20035;-76
2022/04/23 05:01:50;;;;;;;34.78;17.35;;;;;;;9.01;83.27;98857.38;5129233;27;20038;-76
2022/04/23 05:04:16;;;;;;;27.90;18.25;;;;;;;9.02;83.91;98862.47;5128313;28;20119;-76
2022/04/23 05:06:42;;;;;;;32.97;18.40;;;;;;;8.96;84.38;98868.56;5129309;27;20114;-76
2022/04/23 05:09:07;;;;;;;29.88;17.17;;;;;;;9.02;83.82;98861.66;5129432;27;20042;-76
2022/04/23 05:11:33;;;;;;;30.02;17.45;;;;;;;9.12;83.40;98873.56;5129209;27;20035;-75
2022/04/23 05:13:59;;;;;;;27.77;16.10;;;;;;;9.12;83.70;98875.38;5127698;27;20027;-75
2022/04/23 05:16:24;;;;;;;30.42;16.70;;;;;;;9.14;83.37;98879.50;5129006;27;20048;-76
2022/04/23 05:18:50;;;;;;;31.70;17.63;;;;;;;9.23;83.01;98883.63;5129071;27;20039;-76
2022/04/23 05:21:18;;;;;;;25.55;15.27;;;;;;;9.20;82.82;98873.41;5127700;28;20074;-76
2022/04/23 05:23:44;;;;;;;29.17;16.42;;;;;;;9.29;82.79;98883.88;5127389;27;20480;-75
2022/04/23 05:26:10;;;;;;;31.13;16.33;;;;;;;9.32;82.80;98892.25;5127504;28;20068;-76
2022/04/23 05:28:36;;;;;;;29.17;16.92;;;;;;;9.33;82.79;98893.91;5128988;27;20405;-75
2022/04/23 05:31:03;;;;;;;27.85;16.58;;;;;;;9.42;82.50;98894.53;5128873;27;20035;-75
2022/04/23 05:33:29;;;;;;;32.97;16.80;;;;;;;9.46;82.69;98888.66;5117365;27;20038;-74
2022/04/23 05:35:54;;;;;;;22.20;13.75;;;;;;;9.58;82.36;98896.03;5114997;28;20036;-75
2022/04/23 05:38:21;;;;;;;24.92;14.05;;;;;;;9.68;81.70;98893.81;5115020;28;20092;-76
2022/04/23 05:40:48;;;;;;;24.45;14.70;;;;;;;9.74;81.52;98887.69;5114959;28;20046;-75
2022/04/23 05:43:14;;;;;;;24.95;14.68;;;;;;;9.72;81.82;98892.41;5114736;28;20028;-75
2022/04/23 05:45:40;;;;;;;23.60;13.40;;;;;;;9.86;80.96;98890.59;5114750;28;20153;-74
2022/04/23 05:48:06;;;;;;;21.35;13.40;;;;;;;9.88;80.83;98888.56;5114785;27;20035;-75
2022/04/23 05:50:32;;;;;;;20.08;12.60;;;;;;;10.00;80.24;98893.06;5114738;28;20057;-75
2022/04/23 05:52:57;;;;;;;21.70;12.85;;;;;;;10.05;79.71;98893.28;5114577;28;20035;-75
2022/04/23 05:55:23;;;;;;;26.15;15.15;;;;;;;10.12;79.64;98905.78;5114473;28;20446;-72
2022/04/23 05:57:49;;;;;;;22.60;13.27;;;;;;;10.14;79.47;98904.56;5114688;28;20484;-71
2022/04/23 06:00:15;;;;;;;21.13;11.82;;;;;;;10.26;78.72;98899.50;5114525;28;20050;-73
2022/04/23 06:02:41;;;;;;;20.52;12.63;;;;;;;10.30;78.54;98903.38;5113186;28;20116;-71
2022/04/23 06:05:07;;;;;;;20.95;12.35;;;;;;;10.38;78.18;98913.00;5114468;28;20556;-72
2022/04/23 06:07:33;;;;;;;22.88;13.40;;;;;;;10.41;78.11;98910.75;5114494;27;20039;-72
2022/04/23 06:09:59;;;;;;;21.02;12.30;;;;;;;10.43;77.90;98910.53;5114456;28;20122;-71
2022/04/23 06:12:25;;;;;;;18.42;11.75;;;;;;;10.47;77.96;98909.13;5114048;28;20032;-71
2022/04/23 06:14:51;;;;;;;20.77;12.55;;;;;;;10.55;78.00;98917.72;5114361;28;20035;-71
2022/04/23 06:17:23;;;;;;;19.45;12.23;;;;;;;10.60;77.73;98917.09;5114249;28;20437;-72
2022/04/23 06:19:49;;;;;;;18.17;11.82;;;;;;;10.69;76.73;98928.34;5114282;28;20460;-71
2022/04/23 06:22:14;;;;;;;18.05;12.57;;;;;;;10.65;77.50;98919.97;5113893;28;20039;-76
2022/04/23 06:24:40;;;;;;;20.73;12.43;;;;;;;10.71;76.42;98924.47;5112934;28;20069;-72
2022/04/23 06:27:05;;;;;;;17.75;11.65;;;;;;;10.79;76.17;98926.94;5114025;28;20040;-70
2022/04/23 06:29:31;;;;;;;17.27;11.60;;;;;;;10.80;76.55;98927.75;5114072;28;20036;-70
2022/04/23 06:31:56;;;;;;;19.13;11.50;;;;;;;10.85;75.75;98935.94;5113784;28;20084;-70
2022/04/23 06:34:22;;;;;;;18.77;11.80;;;;;;;10.86;75.72;98929.59;5114056;27;20032;-71
2022/04/23 06:36:48;;;;;;;20.38;11.98;;;;;;;10.86;76.31;98935.72;5113868;28;20036;-72
2022/04/23 06:39:13;;;;;;;19.45;10.93;;;;;;;10.94;75.93;98932.03;5113932;28;20078;-71
2022/04/23 06:41:39;;;;;;;16.13;9.90;;;;;;;11.01;75.30;98927.50;5103291;28;20031;-71
2022/04/23 06:44:06;;;;;;;18.50;11.38;;;;;;;11.07;75.22;98934.66;5112267;28;20502;-71
2022/04/23 06:46:31;;;;;;;20.55;11.38;;;;;;;11.14;75.14;98940.78;5113549;28;20043;-72
2022/04/23 06:48:59;;;;;;;18.15;12.15;;;;;;;11.20;74.76;98936.47;5113597;28;20039;-71
2022/04/23 06:51:25;;;;;;;22.13;12.25;;;;;;;11.22;74.94;98937.13;5112987;28;20050;-71
2022/04/23 06:53:51;;;;;;;18.52;11.63;;;;;;;11.27;74.68;98936.47;5111605;28;20039;-71
2022/04/23 06:56:16;;;;;;;21.67;11.93;;;;;;;11.29;74.44;98940.56;5113320;28;20043;-71
2022/04/23 06:58:46;;;;;;;20.33;12.45;;;;;;;11.39;73.28;98943.59;5113369;28;20035;-71
2022/04/23 07:01:11;;;;;;;18.38;11.73;;;;;;;11.49;73.01;98939.69;5113171;28;20476;-70
2022/04/23 07:03:37;;;;;;;18.38;10.77;;;;;;;11.39;73.79;98945.47;5112289;28;20089;-71
2022/04/23 07:06:03;;;;;;;16.20;10.23;;;;;;;11.48;73.76;98948.72;5113240;28;20077;-72
2022/04/23 07:08:29;;;;;;;18.13;11.27;;;;;;;11.73;74.40;98948.81;5112493;28;20111;-72
2022/04/23 07:10:54;;;;;;;18.20;11.27;;;;;;;11.79;74.01;98948.78;5113726;28;20028;-72
2022/04/23 07:13:20;;;;;;;17.80;11.40;;;;;;;11.73;72.46;98960.31;5113427;27;20047;-72
2022/04/23 07:15:46;;;;;;;18.80;10.82;;;;;;;11.81;72.34;98956.63;5113090;28;20034;-72
2022/04/23 07:18:12;;;;;;;17.55;11.02;;;;;;;11.85;71.80;98969.31;5112896;28;20031;-72
2022/04/23 07:20:40;;;;;;;20.35;12.38;;;;;;;11.94;70.60;98952.03;5112433;28;20070;-72
2022/04/23 07:25:51;;;;;;;19.10;11.60;;;;;;;12.05;70.14;98953.19;5112798;28;20077;-70
2022/04/23 07:28:18;;;;;;;16.00;10.07;;;;;;;12.07;69.90;98955.69;5112594;28;20036;-71
2022/04/23 07:30:44;;;;;;;19.25;11.27;;;;;;;12.16;69.79;98955.19;5112544;28;20035;-71
2022/04/23 07:37:28;;;;;;;17.83;12.05;;;;;;;12.33;69.12;98946.69;5111637;28;20033;-72
2022/04/23 07:38:40;;;;;;;18.70;12.05;;;;;;;12.31;68.97;98938.06;5112287;28;20122;-70
2022/04/23 07:41:05;;;;;;;18.45;11.45;;;;;;;12.43;68.75;98941.66;5112126;28;20391;-70
2022/04/23 07:43:31;;;;;;;19.40;11.77;;;;;;;12.42;68.39;98938.19;5111704;28;20035;-71
2022/04/23 07:45:57;;;;;;;17.75;10.93;;;;;;;12.48;68.16;98941.84;5093816;28;20074;-71
2022/04/23 07:48:22;;;;;;;19.55;11.88;;;;;;;12.35;69.17;98953.44;5112205;28;20043;-71
2022/04/23 07:50:48;;;;;;;18.10;11.52;;;;;;;12.45;68.79;98947.59;5112243;28;20031;-71
2022/04/23 07:53:13;;;;;;;21.27;12.25;;;;;;;12.56;68.05;98949.59;5111695;28;20059;-71
2022/04/23 07:55:40;;;;;;;20.63;11.95;;;;;;;12.53;67.27;98958.03;5110453;28;20036;-72
2022/04/23 07:58:06;;;;;;;20.45;11.55;;;;;;;12.67;67.18;98948.88;5112456;28;20043;-71
2022/04/23 08:00:34;;;;;;;16.27;10.80;;;;;;;12.67;67.54;98948.06;5112034;28;20039;-71
2022/04/23 08:03:03;;;;;;;18.50;10.75;;;;;;;12.60;67.50;98940.13;5110308;28;20071;-71
2022/04/23 08:05:29;;;;;;;16.00;10.18;;;;;;;12.77;67.50;98941.19;5112293;28;20527;-71
2022/04/23 08:07:55;;;;;;;15.40;9.98;;;;;;;12.88;66.42;98941.50;5110925;28;20039;-71
2022/04/23 08:10:21;;;;;;;15.57;10.65;;;;;;;12.98;65.94;98942.66;5112192;28;20430;-72
2022/04/23 08:12:46;;;;;;;19.05;10.55;;;;;;;13.03;66.23;98926.75;5111907;28;20028;-71
2022/04/23 08:15:12;;;;;;;15.65;9.73;;;;;;;13.09;65.21;98930.41;5112081;28;20039;-71
2022/04/23 08:17:39;;;;;;;16.17;9.23;;;;;;;13.04;65.13;98925.75;5111986;28;20062;-71
2022/04/23 08:20:06;;;;;;;13.55;8.93;;;;;;;13.16;65.25;98920.47;5111080;28;20038;-71
2022/04/23 08:22:32;;;;;;;13.65;8.95;;;;;;;13.23;64.82;98937.28;5111799;28;20403;-71
2022/04/23 08:24:57;;;;;;;12.50;7.93;;;;;;;13.24;64.55;98935.44;5112215;28;20023;-70
2022/04/23 08:27:23;;;;;;;14.40;8.48;;;;;;;13.35;64.23;98939.22;5112439;28;20028;-72
2022/04/23 08:32:35;;;;;;;11.00;7.45;;;;;;;13.35;62.61;98949.91;5111729;28;20098;-71
2022/04/23 08:35:01;;;;;;;12.10;7.28;;;;;;;13.48;62.03;98950.59;5111880;28;20366;-72
2022/04/23 08:37:27;;;;;;;8.75;6.88;;;;;;;13.60;62.69;98944.50;5111935;28;20451;-71
2022/04/23 08:39:53;;;;;;;12.38;7.05;;;;;;;13.82;61.97;98946.50;5111882;28;20063;-72
2022/04/23 08:42:19;;;;;;;11.50;7.75;;;;;;;14.04;61.63;98944.13;5111517;28;20044;-71
2022/04/23 08:44:45;;;;;;;11.23;7.20;;;;;;;13.97;61.11;98950.63;5093825;28;20032;-71
2022/04/23 08:47:11;;;;;;;11.77;7.40;;;;;;;14.04;61.17;98943.31;5111817;28;20036;-72
2022/04/23 08:49:40;;;;;;;10.05;6.95;;;;;;;14.29;60.18;98952.03;5111936;28;20308;-71
2022/04/23 08:52:15;;;;;;;9.30;6.63;;;;;;;14.36;59.70;98942.03;5111713;28;20474;-72
2022/04/23 08:54:41;;;;;;;10.35;6.78;;;;;;;14.37;60.40;98945.53;5111850;28;20046;-71
2022/04/23 08:57:07;;;;;;;11.65;7.00;;;;;;;14.43;58.93;98938.44;5111865;28;20043;-71
2022/04/23 08:59:32;;;;;;;11.38;6.45;;;;;;;14.57;59.03;98939.88;5110532;28;20114;-72
2022/04/23 09:01:59;;;;;;;9.55;6.18;;;;;;;14.73;58.66;98938.38;5111346;28;20068;-71
2022/04/23 09:04:24;;;;;;;9.48;6.50;;;;;;;14.85;58.60;98940.03;5111600;28;20023;-70
2022/04/23 09:06:50;;;;;;;10.13;7.03;;;;;;;14.84;57.93;98938.38;5111669;28;20039;-71
2022/04/23 09:09:20;;;;;;;10.18;5.85;;;;;;;14.86;57.92;98938.16;5113972;28;20031;-72
2022/04/23 09:11:51;;;;;;;10.50;6.18;;;;;;;15.01;57.42;98926.97;5115211;28;20036;-71
2022/04/23 09:14:23;;;;;;;13.15;6.35;;;;;;;14.80;57.64;98926.53;5115495;28;20040;-71
2022/04/23 09:25:12;;;;;;;10.75;6.00;;;;;;;15.17;56.70;98931.63;5115325;28;20039;-72
2022/04/23 09:27:38;;;;;;;9.05;5.53;;;;;;;15.41;56.67;98933.22;5115543;28;20039;-70
2022/04/23 09:30:08;;;;;;;8.05;5.68;;;;;;;15.44;56.52;98935.44;5115123;28;20027;-71
2022/04/23 09:32:35;;;;;;;9.75;5.78;;;;;;;15.22;56.55;98928.25;5114668;28;20573;-72
2022/04/23 09:35:11;;;;;;;9.32;5.13;;;;;;;15.63;54.68;98936.13;5115257;28;20055;-71
2022/04/23 09:40:27;;;;;;;10.63;5.97;;;;;;;15.68;54.31;98932.72;5114892;28;20043;-72
2022/04/23 09:43:00;;;;;;;7.05;4.82;;;;;;;15.94;53.99;98940.22;5114889;28;20112;-72
2022/04/23 09:45:29;;;;;;;11.63;5.85;;;;;;;15.89;53.35;98942.81;5114953;28;20042;-72
2022/04/23 09:48:16;;;;;;;6.40;4.45;;;;;;;15.86;53.33;98943.31;5115034;27;20031;-73
2022/04/23 09:50:47;;;;;;;7.72;5.25;;;;;;;16.08;52.68;98938.06;5114896;28;20084;-72
2022/04/23 09:53:19;;;;;;;8.30;4.95;;;;;;;15.95;53.57;98932.97;5114479;27;20062;-72
2022/04/23 09:55:46;;;;;;;9.38;4.80;;;;;;;16.06;52.92;98934.00;5114702;28;20114;-73
2022/04/23 09:58:16;;;;;;;9.90;5.60;;;;;;;15.93;52.74;98946.66;5114774;28;20062;-73
2022/04/23 10:00:44;;;;;;;7.72;5.03;;;;;;;15.84;53.65;98937.34;5114474;28;20115;-72
2022/04/23 10:03:11;;;;;;;9.40;5.38;;;;;;;16.10;52.40;98940.50;5114374;28;20118;-73
2022/04/23 10:05:40;;;;;;;7.50;4.68;;;;;;;16.04;52.20;98938.78;5114450;28;20111;-72
2022/04/23 10:08:13;;;;;;;9.38;5.38;;;;;;;16.07;51.92;98925.69;5114457;28;20042;-73
2022/04/23 10:10:55;;;;;;;8.35;5.47;;;;;;;16.59;51.14;98938.97;5114437;28;20062;-72
2022/04/23 10:13:28;;;;;;;8.63;5.07;;;;;;;16.57;50.66;98929.53;5113982;28;20716;-72
2022/04/23 10:15:55;;;;;;;10.60;5.63;;;;;;;17.14;49.51;98932.00;5114264;28;20392;-72
2022/04/23 10:18:21;;;;;;;6.85;4.38;;;;;;;17.60;48.54;98931.59;5114312;28;20395;-72
2022/04/23 10:21:02;;;;;;;6.97;4.45;;;;;;;18.02;48.05;98925.63;5114072;28;20400;-71
2022/04/23 10:23:42;;;;;;;7.47;4.78;;;;;;;18.87;46.61;98920.47;5113948;27;20039;-71
2022/04/23 10:26:33;;;;;;;6.35;4.25;;;;;;;18.73;45.75;98930.06;5113995;28;20023;-72
2022/04/23 10:28:59;;;;;;;6.30;4.55;;;;;;;18.59;44.89;98927.78;5113985;28;20043;-71
2022/04/23 10:31:25;;;;;;;9.60;5.40;;;;;;;18.63;44.65;98926.16;5114403;28;20031;-72
2022/04/23 10:33:52;;;;;;;8.65;4.80;;;;;;;18.40;45.21;98926.53;5112618;28;20050;-72
2022/04/23 10:36:19;;;;;;;8.07;5.25;;;;;;;18.83;45.49;98928.25;5113941;28;20052;-73
2022/04/23 10:38:51;;;;;;;7.13;4.93;;;;;;;18.91;44.69;98926.97;5113845;28;20500;-73
2022/04/23 10:41:19;;;;;;;9.40;5.40;;;;;;;18.88;44.77;98922.06;5113798;28;20114;-73
2022/04/23 10:44:04;;;;;;;9.52;5.05;;;;;;;18.61;45.15;98927.50;5113582;28;20027;-73
2022/04/23 10:46:42;;;;;;;11.13;6.00;;;;;;;19.03;44.22;98921.34;5113682;28;20032;-73
2022/04/23 10:49:15;;;;;;;8.82;5.22;;;;;;;18.73;44.70;98932.75;5113662;28;20036;-72
2022/04/23 10:51:58;;;;;;;8.10;5.60;;;;;;;19.05;43.52;98920.03;5113429;28;20105;-72
2022/04/23 10:54:45;;;;;;;9.77;5.93;;;;;;;19.03;43.71;98918.66;5113887;28;20059;-73
2022/04/23 10:57:14;;;;;;;8.40;4.97;;;;;;;18.93;44.31;98925.63;5109412;28;20107;-73
2022/04/23 10:59:44;;;;;;;8.35;5.22;;;;;;;18.59;44.58;98919.69;5113457;28;20055;-71
2022/04/23 11:02:21;;;;;;;8.85;4.45;;;;;;;18.26;45.56;98917.25;5112956;28;20032;-71
2022/04/23 11:13:31;;;;;;;7.30;4.97;;;;;;;17.63;47.02;98920.31;5112885;28;20042;-71
2022/04/23 11:16:21;;;;;;;8.70;5.45;;;;;;;17.35;47.19;98915.09;5113045;28;20036;-71
2022/04/23 11:18:52;;;;;;;6.93;5.32;;;;;;;17.20;47.77;98913.00;5110090;28;20142;-71
2022/04/23 11:21:28;;;;;;;8.55;5.60;;;;;;;17.20;47.43;98910.31;5112789;28;20032;-71
2022/04/23 11:23:56;;;;;;;6.80;4.93;;;;;;;16.94;48.26;98909.16;5112936;28;20085;-71
2022/04/23 11:26:38;;;;;;;7.32;5.50;;;;;;;17.04;48.15;98911.19;5112953;28;20035;-72
2022/04/23 11:29:04;;;;;;;7.85;5.25;;;;;;;17.15;48.38;98909.44;5113290;28;20443;-71
2022/04/23 11:31:30;;;;;;;6.80;4.63;;;;;;;17.72;48.27;98909.09;5112218;28;20027;-71
2022/04/23 11:33:58;;;;;;;7.93;5.53;;;;;;;18.16;46.42;98905.28;5112805;28;20400;-72
2022/04/23 11:36:37;;;;;;;12.85;5.93;;;;;;;18.32;45.91;98902.72;5112848;28;20036;-71
2022/04/23 11:39:10;;;;;;;7.90;5.35;;;;;;;18.47;45.40;98900.16;5112706;28;20405;-70
2022/04/23 11:41:43;;;;;;;7.82;5.50;;;;;;;18.19;45.65;98898.56;5112449;28;20035;-70
2022/04/23 11:44:20;;;;;;;7.60;5.55;;;;;;;18.24;46.19;98897.78;5112723;28;20039;-69
2022/04/23 11:46:48;;;;;;;7.85;5.05;;;;;;;18.30;46.96;98896.78;5112585;28;20051;-71
2022/04/23 11:49:29;;;;;;;8.25;6.03;;;;;;;18.52;44.92;98896.69;5112622;28;20039;-70
2022/04/23 11:52:05;;;;;;;6.20;4.70;;;;;;;19.07;44.40;98901.69;5111067;28;20446;-70
2022/04/23 11:54:38;;;;;;;6.88;5.30;;;;;;;19.05;44.01;98900.34;5113047;28;20507;-70
2022/04/23 11:57:15;;;;;;;7.43;5.15;;;;;;;18.06;45.50;98883.63;5112524;28;20459;-71
2022/04/23 11:59:46;;;;;;;8.87;5.67;;;;;;;18.50;45.38;98898.81;5112615;28;20031;-70
2022/04/23 12:02:31;;;;;;;6.90;5.63;;;;;;;18.36;44.29;98899.25;5112266;28;20040;-70
2022/04/23 12:04:59;;;;;;;8.63;5.82;;;;;;;18.44;44.26;98890.69;5112533;28;20556;-71
2022/04/23 12:07:25;;;;;;;7.95;5.97;;;;;;;18.68;44.69;98877.69;5112952;28;20039;-71
2022/04/23 12:09:58;;;;;;;8.73;5.47;;;;;;;18.81;43.70;98883.72;5112916;28;20059;-71
2022/04/23 12:12:25;;;;;;;6.95;5.15;;;;;;;18.72;43.80;98880.72;5111996;28;20035;-72
2022/04/23 12:14:52;;;;;;;7.10;5.10;;;;;;;18.90;43.00;98892.94;5111876;28;20496;-72
2022/04/23 12:17:26;;;;;;;8.10;5.32;;;;;;;18.55;43.52;98891.59;5112080;28;20023;-76
2022/04/23 12:19:54;;;;;;;7.15;4.78;;;;;;;19.02;42.76;98877.38;5112159;28;20096;-77
2022/04/23 12:22:25;;;;;;;;;;;;;;;18.91;43.37;98881.09;5112191;28;20032;-76
2022/04/23 12:25:05;;;;;;;7.97;4.25;;;;;;;19.19;42.78;98883.41;5112067;28;19941;-76
2022/04/23 12:27:30;;;;;;;8.45;5.43;;;;;;;19.44;41.74;98887.31;5112158;28;20492;-76
2022/04/23 12:40:58;;;;;;;8.00;5.38;;;;;;;20.70;39.22;98844.56;5112362;28;20032;-75
2022/04/23 12:43:24;;;;;;;9.40;6.88;;;;;;;20.57;39.51;98844.03;5114091;28;20119;-76
2022/04/23 12:45:51;;;;;;;10.10;5.75;;;;;;;20.69;39.15;98843.75;5115850;28;20062;-76
2022/04/23 12:48:17;;;;;;;7.30;5.93;;;;;;;20.42;40.62;98843.22;5115887;28;20039;-76
2022/04/23 12:50:46;;;;;;;9.40;5.07;;;;;;;20.30;40.98;98846.19;5115887;28;20473;-76
2022/04/23 12:53:30;;;;;;;8.05;5.60;;;;;;;20.20;41.39;98852.38;5115710;28;20118;-76
2022/04/23 12:55:56;;;;;;;11.95;6.90;;;;;;;20.12;40.61;98838.59;5115864;27;20043;-75
2022/04/23 12:58:21;;;;;;;10.73;6.95;;;;;;;19.64;42.17;98835.28;5116209;28;20027;-76
2022/04/23 13:00:47;;;;;;;8.32;6.65;;;;;;;19.19;42.18;98825.94;5115762;28;20032;-76
2022/04/23 13:03:31;;;;;;;8.00;5.90;;;;;;;18.84;43.08;98831.94;5115848;28;20055;-77
2022/04/23 13:05:57;;;;;;;9.18;5.60;;;;;;;19.20;42.72;98841.84;5115873;28;20031;-77
2022/04/23 13:11:40;;;;;;;8.40;5.57;;;;;;;19.70;41.17;98836.94;5115913;28;20034;-76
2022/04/23 13:14:00;;;;;;;10.00;5.97;;;;;;;19.77;41.83;98845.59;5112337;28;20047;-74
2022/04/23 13:16:31;;;;;;;8.35;6.13;;;;;;;19.61;40.92;98839.31;5115400;28;20028;-76
2022/04/23 13:19:01;;;;;;;9.30;6.10;;;;;;;19.48;41.44;98834.38;5115432;28;20035;-76
2022/04/23 13:21:29;;;;;;;11.55;6.80;;;;;;;19.04;42.75;98839.34;5115140;27;20095;-76
2022/04/23 13:23:56;;;;;;;13.38;6.80;;;;;;;19.32;42.02;98832.72;5113727;28;20488;-71
2022/04/23 13:26:23;;;;;;;10.10;6.80;;;;;;;19.28;41.82;98834.31;5114036;28;20075;-70
2022/04/23 13:28:49;;;;;;;13.57;7.68;;;;;;;19.30;42.15;98824.91;5115339;28;20408;-72
2022/04/23 13:31:15;;;;;;;12.10;6.72;;;;;;;18.76;44.43;98827.03;5115256;28;20039;-73
2022/04/23 13:33:42;;;;;;;10.57;6.93;;;;;;;19.09;43.33;98825.88;5114732;28;20039;-72
2022/04/23 13:36:09;;;;;;;12.93;7.25;;;;;;;19.03;43.32;98816.94;5115083;28;20036;-72
2022/04/23 13:38:35;;;;;;;13.63;7.78;;;;;;;18.97;43.40;98812.59;5115369;28;20031;-71
2022/04/23 13:41:04;;;;;;;13.50;7.70;;;;;;;19.02;42.90;98807.22;5114959;28;20514;-72
2022/04/23 13:43:30;;;;;;;12.20;8.30;;;;;;;18.79;43.63;98808.47;5114804;28;20035;-71
2022/04/23 13:45:57;;;;;;;12.25;7.78;;;;;;;18.65;43.66;98807.28;5114906;28;20035;-71
2022/04/23 13:48:25;;;;;;;15.55;8.57;;;;;;;18.17;44.65;98801.81;5114775;28;20036;-70
2022/04/23 13:50:51;;;;;;;13.02;8.25;;;;;;;17.98;45.34;98794.38;5114762;28;20070;-76
2022/04/23 13:53:16;;;;;;;13.07;8.10;;;;;;;17.89;47.40;98789.44;5112632;28;20059;-74
2022/04/23 13:55:42;;;;;;;13.20;8.73;;;;;;;17.24;48.27;98801.13;5114458;28;20043;-72
2022/04/23 13:58:07;;;;;;;12.30;7.93;;;;;;;17.41;48.86;98790.31;5114738;28;20036;-76
2022/04/23 14:00:33;;;;;;;12.20;8.52;;;;;;;17.27;47.59;98800.63;5114514;28;20449;-72
2022/04/23 14:11:11;;;;;;;15.07;8.13;;;;;;;17.00;48.69;98789.81;5114281;28;20060;-73
2022/04/23 14:13:36;;;;;;;13.77;8.93;;;;;;;17.16;48.66;98781.94;5113951;28;20422;-72
2022/04/23 14:16:02;;;;;;;15.38;8.20;;;;;;;17.06;49.17;98786.13;5114141;27;20107;-72
2022/04/23 14:18:27;;;;;;;13.40;8.73;;;;;;;17.06;49.16;98780.75;5114073;27;20042;-72
2022/04/23 14:20:53;;;;;;;14.43;8.82;;;;;;;17.22;48.41;98776.38;5078723;28;20044;-73
2022/04/23 14:23:18;;;;;;;15.68;8.48;;;;;;;16.93;49.02;98785.69;5113777;28;20175;-73
2022/04/23 14:25:45;;;;;;;12.80;8.73;;;;;;;17.18;48.10;98772.53;5113843;28;20095;-71
2022/04/23 14:28:11;;;;;;;15.07;9.45;;;;;;;16.99;49.22;98769.34;5114038;28;20342;-72
2022/04/23 14:30:39;;;;;;;15.88;9.27;;;;;;;17.33;48.28;98763.81;5113981;28;20043;-72
2022/04/23 14:33:05;;;;;;;20.17;9.30;;;;;;;17.48;49.88;98755.13;5113585;28;20106;-73
2022/04/23 14:35:32;;;;;;;14.10;9.13;;;;;;;17.55;48.95;98764.59;5113736;28;20041;-71
2022/04/23 14:37:57;;;;;;;17.05;10.95;;;;;;;17.59;47.97;98754.94;5113635;28;20494;-72
2022/04/23 14:40:23;;;;;;;16.63;9.43;;;;;;;17.75;47.38;98752.44;5113551;28;20084;-72
2022/04/23 14:42:55;;;;;;;16.98;9.75;;;;;;;17.71;47.93;98749.44;5113289;28;20370;-72
2022/04/23 14:45:21;;;;;;;17.10;10.02;;;;;;;17.31;49.28;98749.81;5113464;27;20035;-72
2022/04/23 14:47:47;;;;;;;13.63;9.00;;;;;;;17.42;48.53;98748.84;5113473;28;20092;-72
2022/04/23 14:50:13;;;;;;;14.02;9.25;;;;;;;17.23;48.69;98751.09;5112156;28;20102;-72
2022/04/23 14:55:23;;;;;;;18.58;10.05;;;;;;;17.40;47.85;98748.28;5113525;28;20035;-72
2022/04/23 14:57:49;;;;;;;14.82;9.75;;;;;;;17.41;48.15;98738.31;5113479;28;20034;-72
2022/04/23 15:00:15;;;;;;;15.98;9.90;;;;;;;17.32;48.53;98743.34;5113252;28;20043;-72
2022/04/23 15:02:40;;;;;;;18.27;11.15;;;;;;;17.26;48.67;98729.03;5112639;28;20046;-73
2022/04/23 15:05:08;;;;;;;13.45;9.00;;;;;;;17.17;49.22;98740.50;5112350;28;20050;-72
2022/04/23 15:07:34;;;;;;;16.08;9.43;;;;;;;17.23;49.11;98732.25;5113069;28;20043;-72
2022/04/23 15:09:59;;;;;;;15.13;9.70;;;;;;;17.18;48.87;98726.00;5111816;28;20039;-73
2022/04/23 15:12:27;;;;;;;19.05;10.85;;;;;;;16.99;50.42;98730.88;5112720;28;20081;-72
2022/04/23 15:14:54;;;;;;;17.73;10.60;;;;;;;16.94;49.28;98722.75;5113068;28;20126;-73
2022/04/23 15:17:20;;;;;;;15.93;10.75;;;;;;;17.06;49.50;98724.25;5111623;28;20459;-71
2022/04/23 15:19:45;;;;;;;18.90;11.35;;;;;;;17.07;50.74;98717.00;5112926;28;20038;-70
2022/04/23 15:22:11;;;;;;;17.50;10.48;;;;;;;17.02;50.46;98715.06;5112264;28;20036;-74
2022/04/23 15:24:37;;;;;;;16.23;10.70;;;;;;;17.22;50.87;98722.56;5112911;28;20044;-73
2022/04/23 15:27:02;;;;;;;16.75;10.65;;;;;;;16.89;50.92;98712.78;5112833;28;20357;-73
2022/04/23 15:29:28;;;;;;;16.98;10.50;;;;;;;17.15;50.41;98721.94;5112905;28;20031;-74
2022/04/23 15:31:54;;;;;;;22.40;11.70;;;;;;;16.86;50.53;98720.50;5112620;28;20388;-75
2022/04/23 15:34:19;;;;;;;19.23;10.70;;;;;;;17.08;49.80;98710.53;5112755;28;20027;-72
2022/04/23 15:36:45;;;;;;;19.73;10.75;;;;;;;17.07;50.09;98709.72;5112535;27;20047;-74
2022/04/23 15:39:11;;;;;;;19.40;12.10;;;;;;;16.89;49.83;98710.09;5112793;28;20502;-74
2022/04/23 15:41:36;;;;;;;22.13;11.80;;;;;;;16.94;49.92;98701.25;5112444;28;20035;-74
2022/04/23 15:44:02;;;;;;;17.58;11.45;;;;;;;16.55;51.29;98703.97;5112649;28;20112;-75
2022/04/23 15:46:28;;;;;;;20.13;12.20;;;;;;;16.81;50.66;98714.00;5112580;28;20036;-73
2022/04/23 15:48:54;;;;;;;23.63;12.20;;;;;;;16.84;50.45;98699.25;5112460;28;20115;-74
2022/04/23 15:51:20;;;;;;;18.15;11.50;;;;;;;16.90;50.34;98700.94;5112440;28;20063;-73
2022/04/23 15:53:45;;;;;;;21.30;12.15;;;;;;;16.92;49.00;98698.00;5112180;28;20039;-75
2022/04/23 15:56:12;;;;;;;17.45;11.18;;;;;;;16.92;49.16;98693.44;5112266;28;20042;-75
2022/04/23 15:58:38;;;;;;;19.20;11.23;;;;;;;16.87;50.04;98706.00;5111246;28;20047;-75
2022/04/23 16:01:04;;;;;;;21.52;12.38;;;;;;;16.76;49.90;98697.84;5112472;28;20081;-75
2022/04/23 16:03:30;;;;;;;18.52;11.95;;;;;;;16.49;51.00;98707.66;5111950;28;20395;-74
2022/04/23 16:05:58;;;;;;;17.30;10.48;;;;;;;16.57;51.01;98707.25;5112128;28;20075;-73
2022/04/23 16:08:23;;;;;;;18.48;11.65;;;;;;;16.51;50.45;98710.91;5112242;28;20042;-74
2022/04/23 16:10:50;;;;;;;19.90;12.73;;;;;;;16.59;50.72;98715.84;5112143;28;20031;-74
2022/04/23 16:13:16;;;;;;;20.02;11.82;;;;;;;16.57;51.41;98709.94;5111880;28;20074;-75
2022/04/23 16:15:42;;;;;;;19.85;12.30;;;;;;;16.57;50.48;98704.56;5112266;28;20397;-77
2022/04/23 16:18:08;;;;;;;18.95;12.13;;;;;;;16.54;50.76;98699.66;5112214;28;20032;-74
2022/04/23 16:20:33;;;;;;;23.92;13.88;;;;;;;16.20;51.87;98696.25;5111773;28;20043;-73
2022/04/23 16:22:59;;;;;;;19.45;12.23;;;;;;;16.36;51.16;98692.69;5111710;28;20099;-74
2022/04/23 16:25:27;;;;;;;19.25;11.75;;;;;;;16.38;51.08;98687.09;5111890;28;20083;-74
2022/04/23 16:27:52;;;;;;;19.15;12.02;;;;;;;16.45;51.33;98691.22;5112227;28;20442;-74
2022/04/23 16:30:18;;;;;;;20.05;12.27;;;;;;;16.42;51.76;98691.69;5112162;28;20039;-75
2022/04/23 16:32:44;;;;;;;21.65;13.27;;;;;;;16.37;51.68;98699.72;5110884;28;20404;-74
2022/04/23 16:35:10;;;;;;;26.65;13.82;;;;;;;16.38;51.10;98690.59;5112049;28;20043;-77
2022/04/23 16:48:35;;;;;;;22.13;13.65;;;;;;;16.33;52.43;98695.06;5111993;28;20039;-76
2022/04/23 16:51:02;;;;;;;21.20;14.50;;;;;;;16.33;53.00;98693.22;5111922;28;20513;-75
2022/04/23 16:53:27;;;;;;;21.50;13.15;;;;;;;16.36;52.51;98686.50;5111553;28;20031;-74